Time;durP1;ratioP1;P1;durP2;ratioP2;P2;SDS_P1;SDS_P2;PMS_P1;PMS_P2;Temp;Humidity;BMP_temperature;BMP_pressure;BME280_temperature;BME280_humidity;BME280_pressure;Samples;Min_cycle;Max_cycle;Signal;HPM_P1;HPM_P2
2023/11/09 00:01:10;;;;;;;;;;;;;;;;;;5094840;28;19977;-73
2023/11/09 00:03:36;;;;;;;;;;;;;;;;;;5094396;28;20014;-72
2023/11/09 00:06:02;;;;;;;;;;;;;;;;;;5095051;28;20383;-73
2023/11/09 00:08:30;;;;;;;;;;;;;;;;;;5094751;28;19909;-73
2023/11/09 00:10:56;;;;;;;;;;;;;;;;;;5094285;28;20371;-72
2023/11/09 00:13:22;;;;;;;;;;;;;;;;;;5094637;28;19920;-72
2023/11/09 00:15:48;;;;;;;;;;;;;;;;;;5094788;28;19950;-72
2023/11/09 00:18:21;;;;;;;;;;;;;;;;;;5094126;28;19915;-73
2023/11/09 00:20:48;;;;;;;;;;;;;;;;;;5094586;28;20049;-72
2023/11/09 00:23:14;;;;;;;;;;;;;;;;;;5094449;28;19953;-73
2023/11/09 00:25:40;;;;;;;;;;;;;;;;;;5094085;28;19908;-73
2023/11/09 00:28:07;;;;;;;;;;;;;;;;;;5094804;28;20352;-73
2023/11/09 00:30:33;;;;;;;;;;;;;;;;;;5094334;28;20356;-72
2023/11/09 00:32:59;;;;;;;;;;;;;;;;;;5093968;28;20003;-72
2023/11/09 00:35:25;;;;;;;;;;;;;;;;;;5094283;28;19966;-73
2023/11/09 00:37:51;;;;;;;;;;;;;;;;;;5094198;28;19908;-73
2023/11/09 00:40:16;;;;;;;;;;;;;;;;;;5075844;28;20014;-73
2023/11/09 00:42:43;;;;;;;;;;;;;;;;;;5076002;28;20303;-73
2023/11/09 00:45:09;;;;;;;;;;;;;;;;;;5093709;28;19914;-73
2023/11/09 00:47:35;;;;;;;;;;;;;;;;;;5094115;28;19912;-73
2023/11/09 00:50:01;;;;;;;;;;;;;;;;;;5094138;28;19909;-72
2023/11/09 00:52:27;;;;;;;;;;;;;;;;;;5093393;28;19920;-73
2023/11/09 00:54:53;;;;;;;;;;;;;;;;;;5093989;28;19915;-73
2023/11/09 00:57:23;;;;;;;;;;;;;;;;;;5094238;28;19908;-73
2023/11/09 00:59:49;;;;;;;;;;;;;;;;;;5093567;28;19915;-72
2023/11/09 01:02:16;;;;;;;;;;;;;;;;;;5075842;28;19915;-73
2023/11/09 01:04:42;;;;;;;;;;;;;;;;;;5075573;28;20283;-73
2023/11/09 01:07:09;;;;;;;;;;;;;;;;;;5093480;28;20026;-73
2023/11/09 01:09:35;;;;;;;;;;;;;;;;;;5093902;28;19915;-72
2023/11/09 01:12:01;;;;;;;;;;;;;;;;;;5093837;28;19908;-72
2023/11/09 01:14:27;;;;;;;;;;;;;;;;;;5093408;28;20001;-73
2023/11/09 01:16:53;;;;;;;;;;;;;;;;;;5093811;28;19908;-72
2023/11/09 01:19:19;;;;;;;;;;;;;;;;;;5093825;28;20435;-72
2023/11/09 01:21:45;;;;;;;;;;;;;;;;;;5093338;28;19943;-72
2023/11/09 01:24:11;;;;;;;;;;;;;;;;;;5093990;28;19908;-73
2023/11/09 01:26:37;;;;;;;;;;;;;;;;;;5093753;28;19908;-73
2023/11/09 01:29:03;;;;;;;;;;;;;;;;;;5093317;28;20272;-73
2023/11/09 01:31:30;;;;;;;;;;;;;;;;;;5093721;28;19914;-73
2023/11/09 01:33:56;;;;;;;;;;;;;;;;;;5093922;28;19942;-73
2023/11/09 01:36:22;;;;;;;;;;;;;;;;;;5093289;28;19912;-73
2023/11/09 01:38:48;;;;;;;;;;;;;;;;;;5093621;28;20408;-73
2023/11/09 01:41:14;;;;;;;;;;;;;;;;;;5093195;28;19908;-73
2023/11/09 01:43:40;;;;;;;;;;;;;;;;;;5093541;28;19908;-73
2023/11/09 01:46:06;;;;;;;;;;;;;;;;;;5093968;28;19909;-73
2023/11/09 01:48:32;;;;;;;;;;;;;;;;;;5093113;28;19989;-73
2023/11/09 01:50:58;;;;;;;;;;;;;;;;;;5093344;28;19912;-72
2023/11/09 01:53:25;;;;;;;;;;;;;;;;;;5093479;28;19920;-73
2023/11/09 01:55:51;;;;;;;;;;;;;;;;;;5093200;28;19916;-73
2023/11/09 01:58:17;;;;;;;;;;;;;;;;;;5093431;28;19908;-73
2023/11/09 02:00:42;;;;;;;;;;;;;;;;;;5093707;28;19957;-73
2023/11/09 02:03:09;;;;;;;;;;;;;;;;;;5093141;28;19962;-73
2023/11/09 02:05:37;;;;;;;;;;;;;;;;;;5075282;28;19940;-73
2023/11/09 02:08:03;;;;;;;;;;;;;;;;;;5093369;28;19913;-73
2023/11/09 02:10:29;;;;;;;;;;;;;;;;;;5093188;28;19977;-73
2023/11/09 02:12:55;;;;;;;;;;;;;;;;;;5093749;28;19916;-73
2023/11/09 02:15:21;;;;;;;;;;;;;;;;;;5093318;28;19915;-72
2023/11/09 02:17:47;;;;;;;;;;;;;;;;;;5096058;28;20301;-72
2023/11/09 02:20:13;;;;;;;;;;;;;;;;;;5096839;28;20276;-72
2023/11/09 02:22:39;;;;;;;;;;;;;;;;;;5096783;28;20367;-73
2023/11/09 02:25:05;;;;;;;;;;;;;;;;;;5096481;28;20276;-72
2023/11/09 02:27:31;;;;;;;;;;;;;;;;;;5096683;28;20276;-73
2023/11/09 02:29:57;;;;;;;;;;;;;;;;;;5096589;28;20353;-73
2023/11/09 02:32:23;;;;;;;;;;;;;;;;;;5096172;28;19988;-73
2023/11/09 02:34:49;;;;;;;;;;;;;;;;;;5096533;28;19962;-73
2023/11/09 02:37:15;;;;;;;;;;;;;;;;;;5096538;28;19954;-73
2023/11/09 02:39:41;;;;;;;;;;;;;;;;;;5096169;28;19931;-73
2023/11/09 02:42:07;;;;;;;;;;;;;;;;;;5078565;28;19912;-73
2023/11/09 02:44:36;;;;;;;;;;;;;;;;;;5096045;28;20004;-73
2023/11/09 02:47:02;;;;;;;;;;;;;;;;;;5096301;28;20288;-72
2023/11/09 02:49:28;;;;;;;;;;;;;;;;;;5096638;28;19915;-73
2023/11/09 02:51:54;;;;;;;;;;;;;;;;;;5095573;28;19973;-72
2023/11/09 02:54:20;;;;;;;;;;;;;;;;;;5096337;28;20312;-73
2023/11/09 02:56:46;;;;;;;;;;;;;;;;;;5096121;28;20313;-73
2023/11/09 02:59:12;;;;;;;;;;;;;;;;;;5095686;28;19912;-73
2023/11/09 03:01:39;;;;;;;;;;;;;;;;;;5096078;28;19908;-73
2023/11/09 03:04:05;;;;;;;;;;;;;;;;;;5096185;28;19908;-73
2023/11/09 03:06:31;;;;;;;;;;;;;;;;;;5095626;28;20256;-73
2023/11/09 03:08:57;;;;;;;;;;;;;;;;;;5077797;28;20331;-73
2023/11/09 03:11:23;;;;;;;;;;;;;;;;;;5095851;28;19908;-73
2023/11/09 03:13:50;;;;;;;;;;;;;;;;;;5095318;28;19916;-72
2023/11/09 03:16:16;;;;;;;;;;;;;;;;;;5095958;28;19908;-73
2023/11/09 03:18:42;;;;;;;;;;;;;;;;;;5095734;28;20145;-73
2023/11/09 03:21:11;;;;;;;;;;;;;;;;;;5095268;28;19944;-73
2023/11/09 03:23:37;;;;;;;;;;;;;;;;;;5077779;28;20318;-73
2023/11/09 03:26:03;;;;;;;;;;;;;;;;;;5077383;28;19915;-73
2023/11/09 03:28:31;;;;;;;;;;;;;;;;;;5095126;28;19912;-73
2023/11/09 03:30:59;;;;;;;;;;;;;;;;;;5095452;28;19953;-73
2023/11/09 03:33:25;;;;;;;;;;;;;;;;;;5095394;28;19917;-73
2023/11/09 03:35:51;;;;;;;;;;;;;;;;;;5094896;28;20272;-73
2023/11/09 03:38:17;;;;;;;;;;;;;;;;;;5095080;28;19912;-73
2023/11/09 03:40:43;;;;;;;;;;;;;;;;;;5095387;28;20359;-73
2023/11/09 03:43:09;;;;;;;;;;;;;;;;;;5095263;28;19908;-73
2023/11/09 03:45:36;;;;;;;;;;;;;;;;;;5095182;28;19919;-73
2023/11/09 03:48:01;;;;;;;;;;;;;;;;;;5094706;28;19908;-72
2023/11/09 03:50:27;;;;;;;;;;;;;;;;;;5076836;28;19951;-73
2023/11/09 03:52:53;;;;;;;;;;;;;;;;;;5076645;28;19920;-73
2023/11/09 03:55:19;;;;;;;;;;;;;;;;;;5076342;28;19915;-73
2023/11/09 03:57:45;;;;;;;;;;;;;;;;;;5094985;28;19908;-73
2023/11/09 04:00:12;;;;;;;;;;;;;;;;;;5076773;28;19974;-73
2023/11/09 04:02:38;;;;;;;;;;;;;;;;;;5094548;28;19908;-73
2023/11/09 04:05:04;;;;;;;;;;;;;;;;;;5076628;28;19915;-73
2023/11/09 04:07:32;;;;;;;;;;;;;;;;;;5094804;28;20053;-73
2023/11/09 04:09:58;;;;;;;;;;;;;;;;;;5094286;28;20395;-73
2023/11/09 04:12:24;;;;;;;;;;;;;;;;;;5094633;28;19916;-73
2023/11/09 04:14:50;;;;;;;;;;;;;;;;;;5094610;28;19990;-73
2023/11/09 04:17:18;;;;;;;;;;;;;;;;;;5094182;28;19908;-73
2023/11/09 04:19:44;;;;;;;;;;;;;;;;;;5094537;28;19923;-73
2023/11/09 04:22:10;;;;;;;;;;;;;;;;;;5094447;28;19908;-73
2023/11/09 04:24:36;;;;;;;;;;;;;;;;;;5094021;28;19961;-73
2023/11/09 04:27:02;;;;;;;;;;;;;;;;;;5094416;28;19912;-73
2023/11/09 04:29:30;;;;;;;;;;;;;;;;;;5094406;28;19974;-73
2023/11/09 04:31:56;;;;;;;;;;;;;;;;;;5094008;28;19908;-73
2023/11/09 04:34:25;;;;;;;;;;;;;;;;;;5094255;28;20375;-73
2023/11/09 04:36:52;;;;;;;;;;;;;;;;;;5094618;28;19975;-73
2023/11/09 04:39:29;;;;;;;;;;;;;;;;;;5093397;28;19908;-73
2023/11/09 04:41:56;;;;;;;;;;;;;;;;;;5094243;28;19908;-73
2023/11/09 04:44:23;;;;;;;;;;;;;;;;;;5093813;28;19956;-73
2023/11/09 04:46:49;;;;;;;;;;;;;;;;;;5075956;28;19908;-73
2023/11/09 04:49:18;;;;;;;;;;;;;;;;;;5094101;28;20271;-73
2023/11/09 04:51:46;;;;;;;;;;;;;;;;;;5093771;28;19920;-73
2023/11/09 04:54:19;;;;;;;;;;;;;;;;;;5075784;28;19934;-73
2023/11/09 05:07:24;;;;;;;;;;;;;;;;;;5093596;28;20284;-73
2023/11/09 05:09:50;;;;;;;;;;;;;;;;;;5094275;28;19908;-73
2023/11/09 05:12:16;;;;;;;;;;;;;;;;;;5093354;28;20357;-73
2023/11/09 05:14:42;;;;;;;;;;;;;;;;;;5075670;28;19912;-73
2023/11/09 05:17:14;;;;;;;;;;;;;;;;;;5094078;28;19991;-73
2023/11/09 05:19:40;;;;;;;;;;;;;;;;;;5093483;28;20022;-73
2023/11/09 05:22:08;;;;;;;;;;;;;;;;;;5093983;28;20380;-73
2023/11/09 05:24:34;;;;;;;;;;;;;;;;;;5093725;28;19908;-73
2023/11/09 05:27:00;;;;;;;;;;;;;;;;;;5093277;28;19969;-73
2023/11/09 05:29:25;;;;;;;;;;;;;;;;;;5093236;28;19908;-73
2023/11/09 05:31:51;;;;;;;;;;;;;;;;;;5092820;28;20282;-73
2023/11/09 05:34:17;;;;;;;;;;;;;;;;;;5092491;28;19975;-73
2023/11/09 05:36:43;;;;;;;;;;;;;;;;;;5093834;28;19939;-73
2023/11/09 05:39:10;;;;;;;;;;;;;;;;;;5091968;28;19938;-73
2023/11/09 05:41:36;;;;;;;;;;;;;;;;;;5091164;28;19917;-73
2023/11/09 05:44:02;;;;;;;;;;;;;;;;;;5091442;28;19912;-73
2023/11/09 05:46:28;;;;;;;;;;;;;;;;;;5092111;28;19908;-73
2023/11/09 05:48:54;;;;;;;;;;;;;;;;;;5091107;28;20419;-73
2023/11/09 05:51:23;;;;;;;;;;;;;;;;;;5092694;28;20380;-73
2023/11/09 05:53:49;;;;;;;;;;;;;;;;;;5096328;28;20010;-73
2023/11/09 05:56:18;;;;;;;;;;;;;;;;;;5096926;28;20367;-73
2023/11/09 05:58:44;;;;;;;;;;;;;;;;;;5097202;28;19908;-73
2023/11/09 06:01:11;;;;;;;;;;;;;;;;;;5097147;28;19973;-73
2023/11/09 06:03:37;;;;;;;;;;;;;;;;;;5096724;28;20363;-73
2023/11/09 06:06:03;;;;;;;;;;;;;;;;;;5078825;28;20378;-73
2023/11/09 06:08:29;;;;;;;;;;;;;;;;;;5096777;28;19908;-72
2023/11/09 06:10:55;;;;;;;;;;;;;;;;;;5097159;28;19914;-73
2023/11/09 06:13:22;;;;;;;;;;;;;;;;;;5097408;28;20310;-72
2023/11/09 06:15:48;;;;;;;;;;;;;;;;;;5096572;28;19937;-73
2023/11/09 06:18:14;;;;;;;;;;;;;;;;;;5096762;28;19912;-72
2023/11/09 06:20:41;;;;;;;;;;;;;;;;;;5094044;28;19908;-72
2023/11/09 06:23:07;;;;;;;;;;;;;;;;;;5094145;28;19912;-71
2023/11/09 06:25:33;;;;;;;;;;;;;;;;;;5083301;28;19973;-69
2023/11/09 06:27:59;;;;;;;;;;;;;;;;;;5069389;28;20257;-69
2023/11/09 06:30:27;;;;;;;;;;;;;;;;;;5082089;28;19919;-69
2023/11/09 06:32:53;;;;;;;;;;;;;;;;;;5090364;28;20435;-70
2023/11/09 06:35:19;;;;;;;;;;;;;;;;;;5091335;28;19912;-71
2023/11/09 06:37:45;;;;;;;;;;;;;;;;;;5089630;28;20287;-70
2023/11/09 06:40:12;;;;;;;;;;;;;;;;;;5092554;28;19917;-73
2023/11/09 06:42:38;;;;;;;;;;;;;;;;;;5093181;28;19915;-72
2023/11/09 06:45:05;;;;;;;;;;;;;;;;;;5091158;28;19913;-71
2023/11/09 06:47:31;;;;;;;;;;;;;;;;;;5093177;28;19916;-72
2023/11/09 06:49:58;;;;;;;;;;;;;;;;;;5090082;28;19916;-69
2023/11/09 06:52:24;;;;;;;;;;;;;;;;;;5091830;28;20326;-72
2023/11/09 06:54:50;;;;;;;;;;;;;;;;;;5092491;28;20364;-71
2023/11/09 06:57:16;;;;;;;;;;;;;;;;;;5094248;28;19912;-70
2023/11/09 06:59:42;;;;;;;;;;;;;;;;;;5092748;28;20011;-71
2023/11/09 07:02:08;;;;;;;;;;;;;;;;;;5092191;28;19926;-71
2023/11/09 07:04:34;;;;;;;;;;;;;;;;;;5090908;28;19913;-73
2023/11/09 07:07:00;;;;;;;;;;;;;;;;;;5091030;28;19944;-71
2023/11/09 07:09:26;;;;;;;;;;;;;;;;;;5091851;28;19935;-71
2023/11/09 07:11:55;;;;;;;;;;;;;;;;;;5084826;28;20228;-71
2023/11/09 07:14:23;;;;;;;;;;;;;;;;;;5090191;28;20398;-70
2023/11/09 07:16:49;;;;;;;;;;;;;;;;;;5090024;28;19912;-70
2023/11/09 07:19:15;;;;;;;;;;;;;;;;;;5091187;28;20376;-69
2023/11/09 07:21:41;;;;;;;;;;;;;;;;;;5090689;28;20421;-71
2023/11/09 07:24:08;;;;;;;;;;;;;;;;;;5081058;28;19939;-71
2023/11/09 07:26:34;;;;;;;;;;;;;;;;;;5078504;28;19994;-73
2023/11/09 07:29:00;;;;;;;;;;;;;;;;;;5091564;28;19921;-73
2023/11/09 07:31:26;;;;;;;;;;;;;;;;;;5092268;28;19912;-73
2023/11/09 07:33:52;;;;;;;;;;;;;;;;;;5091567;28;19924;-72
2023/11/09 07:36:18;;;;;;;;;;;;;;;;;;5090942;28;19908;-68
2023/11/09 07:38:44;;;;;;;;;;;;;;;;;;5090425;28;19913;-70
2023/11/09 07:41:10;;;;;;;;;;;;;;;;;;5091122;28;19908;-67
2023/11/09 07:43:36;;;;;;;;;;;;;;;;;;5091741;28;19934;-69
2023/11/09 07:46:02;;;;;;;;;;;;;;;;;;5092080;28;19962;-70
2023/11/09 07:48:28;;;;;;;;;;;;;;;;;;5091484;28;19985;-72
2023/11/09 07:50:54;;;;;;;;;;;;;;;;;;5092458;28;19982;-69
2023/11/09 07:53:20;;;;;;;;;;;;;;;;;;5092945;28;19946;-70
2023/11/09 07:55:48;;;;;;;;;;;;;;;;;;5092938;28;20307;-72
2023/11/09 07:58:14;;;;;;;;;;;;;;;;;;5091898;28;19915;-70
2023/11/09 08:00:40;;;;;;;;;;;;;;;;;;5092152;28;19914;-69
2023/11/09 08:03:08;;;;;;;;;;;;;;;;;;5091057;28;19951;-70
2023/11/09 08:05:40;;;;;;;;;;;;;;;;;;5093782;28;19960;-69
2023/11/09 08:08:10;;;;;;;;;;;;;;;;;;5090270;28;19912;-72
2023/11/09 08:10:37;;;;;;;;;;;;;;;;;;5088227;28;19916;-69
2023/11/09 08:13:03;;;;;;;;;;;;;;;;;;5084557;28;19924;-70
2023/11/09 08:15:29;;;;;;;;;;;;;;;;;;5090448;28;19912;-72
2023/11/09 08:17:55;;;;;;;;;;;;;;;;;;5089652;28;19919;-71
2023/11/09 08:20:21;;;;;;;;;;;;;;;;;;5091198;28;19908;-70
2023/11/09 08:22:47;;;;;;;;;;;;;;;;;;5090705;28;20007;-70
2023/11/09 08:25:13;;;;;;;;;;;;;;;;;;5086713;28;20382;-71
2023/11/09 08:27:40;;;;;;;;;;;;;;;;;;5092763;28;20288;-69
2023/11/09 08:30:09;;;;;;;;;;;;;;;;;;5090767;28;19924;-70
2023/11/09 08:32:36;;;;;;;;;;;;;;;;;;5087951;28;19916;-70
2023/11/09 08:35:04;;;;;;;;;;;;;;;;;;5076027;28;20573;-71
2023/11/09 08:37:30;;;;;;;;;;;;;;;;;;5083706;28;19908;-69
2023/11/09 08:39:58;;;;;;;;;;;;;;;;;;5087937;28;20019;-70
2023/11/09 08:42:24;;;;;;;;;;;;;;;;;;5090959;28;20363;-70
2023/11/09 08:44:50;;;;;;;;;;;;;;;;;;5089536;28;19912;-70
2023/11/09 08:47:18;;;;;;;;;;;;;;;;;;5088053;28;19915;-70
2023/11/09 08:49:44;;;;;;;;;;;;;;;;;;5089525;28;19916;-69
2023/11/09 08:52:10;;;;;;;;;;;;;;;;;;5084790;28;19931;-71
2023/11/09 08:54:37;;;;;;;;;;;;;;;;;;5079462;28;19982;-69
2023/11/09 08:57:03;;;;;;;;;;;;;;;;;;5080931;28;20279;-70
2023/11/09 08:59:31;;;;;;;;;;;;;;;;;;5091651;28;19962;-68
2023/11/09 09:01:57;;;;;;;;;;;;;;;;;;5086831;28;20023;-69
2023/11/09 09:04:24;;;;;;;;;;;;;;;;;;5072445;28;19908;-68
2023/11/09 09:06:52;;;;;;;;;;;;;;;;;;5079464;28;20007;-68
2023/11/09 09:09:18;;;;;;;;;;;;;;;;;;5093139;28;19943;-70
2023/11/09 09:11:44;;;;;;;;;;;;;;;;;;5082503;28;19967;-68
2023/11/09 09:15:40;;;;;;;;;;;;;;;;;;5091091;27;19916;-67
2023/11/09 09:18:09;;;;;;;;;;;;;;;;;;5099025;28;20379;-69
2023/11/09 09:20:37;;;;;;;;;;;;;;;;;;5099793;28;19913;-69
2023/11/09 09:23:04;;;;;;;;;;;;;;;;;;5106429;28;19923;-68
2023/11/09 09:25:30;;;;;;;;;;;;;;;;;;5102097;28;20011;-72
2023/11/09 09:27:56;;;;;;;;;;;;;;;;;;5115056;28;20618;-71
2023/11/09 09:33:46;;;;;;;;;;;;;;;;;;5103746;27;19916;-71
2023/11/09 09:37:10;;;;;;;;;;;;;;;;;;5080620;27;20304;-71
2023/11/09 09:39:37;;;;;;;;;;;;;;;;;;5080741;28;19927;-72
2023/11/09 09:42:03;;;;;;;;;;;;;;;;;;5087618;28;19959;-72
2023/11/09 09:49:22;;;;;;;;;;;;;;;;;;5096992;27;19965;-72
2023/11/09 09:51:49;;;;;;;;;;;;;;;;;;5103126;28;20457;-73
2023/11/09 09:54:15;;;;;;;;;;;;;;;;;;5102646;28;19955;-69
2023/11/09 09:56:42;;;;;;;;;;;;;;;;;;5099064;28;20283;-71
2023/11/09 10:01:06;;;;;;;;;;;;;;;;;;5099223;27;19922;-72
2023/11/09 10:04:12;;;;;;;;;;;;;;;;;;5067232;28;19920;-72
2023/11/09 10:06:38;;;;;;;;;;;;;;;;;;5056830;28;19913;-72
2023/11/09 10:09:05;;;;;;;;;;;;;;;;;;5076238;28;19955;-72
2023/11/09 10:12:32;;;;;;;;;;;;;;;;;;5105417;27;19916;-71
2023/11/09 10:16:37;;;;;;;;;;;;;;;;;;4681699;27;12517152;-71
2023/11/09 10:19:03;;;;;;;;;;;;;;;;;;5111447;28;19923;-72
2023/11/09 10:21:30;;;;;;;;;;;;;;;;;;5069836;28;21426;-72
2023/11/09 10:24:19;;;;;;;;;;;;;;;;;;5055707;27;20034;-72
2023/11/09 10:33:30;;;;;;;;;;;;;;;;;;5108999;27;19946;-67
2023/11/09 10:36:01;;;;;;;;;;;;;;;;;;5114171;28;19919;-70
2023/11/09 10:38:27;;;;;;;;;;;;;;;;;;5110543;28;19912;-71
2023/11/09 10:42:46;;;;;;;;;;;;;;;;;;5097280;27;20265;-68
2023/11/09 10:45:13;;;;;;;;;;;;;;;;;;5082896;28;19923;-69
2023/11/09 10:47:39;;;;;;;;;;;;;;;;;;5075549;28;20011;-69
2023/11/09 10:50:13;;;;;;;;;;;;;;;;;;5069997;28;19938;-70
2023/11/09 10:53:28;;;;;;;;;;;;;;;;;;5116761;27;19924;-71
2023/11/09 10:55:54;;;;;;;;;;;;;;;;;;5111085;27;19918;-70
2023/11/09 10:58:21;;;;;;;;;;;;;;;;;;5117301;28;19947;-70
2023/11/09 11:02:04;;;;;;;;;;;;;;;;;;5089749;27;19926;-71
2023/11/09 11:04:55;;;;;;;;;;;;;;;;;;5087876;28;20460;-72
2023/11/09 11:07:37;;;;;;;;;;;;;;;;;;5079986;28;19924;-71
2023/11/09 11:10:03;;;;;;;;;;;;;;;;;;5080276;28;19920;-71
2023/11/09 11:12:29;;;;;;;;;;;;;;;;;;5078423;28;20368;-70
2023/11/09 11:14:55;;;;;;;;;;;;;;;;;;5086973;28;19920;-71
2023/11/09 11:17:50;;;;;;;;;;;;;;;;;;5141488;27;19915;-70
2023/11/09 11:23:22;;;;;;;;;;;;;;;;;;5104982;27;20279;-71
2023/11/09 11:25:50;;;;;;;;;;;;;;;;;;5100294;28;20379;-71
2023/11/09 11:28:17;;;;;;;;;;;;;;;;;;5103598;28;20006;-70
2023/11/09 11:30:43;;;;;;;;;;;;;;;;;;5105531;28;19938;-69
2023/11/09 11:33:09;;;;;;;;;;;;;;;;;;5105189;28;19916;-71
2023/11/09 11:35:35;;;;;;;;;;;;;;;;;;5107275;28;20376;-67
2023/11/09 11:39:53;;;;;;;;;;;;;;;;;;5090539;27;19935;-71
2023/11/09 11:42:20;;;;;;;;;;;;;;;;;;5075990;28;19924;-70
2023/11/09 11:44:46;;;;;;;;;;;;;;;;;;5074035;28;20066;-69
2023/11/09 11:47:14;;;;;;;;;;;;;;;;;;5073230;28;19919;-69
2023/11/09 11:49:40;;;;;;;;;;;;;;;;;;5065361;28;19924;-72
2023/11/09 11:53:52;;;;;;;;;;;;;;;;;;5167913;27;19915;-70
2023/11/09 11:56:20;;;;;;;;;;;;;;;;;;5170480;27;19922;-70
2023/11/09 11:58:46;;;;;;;;;;;;;;;;;;5169445;27;19913;-71
2023/11/09 12:01:12;;;;;;;;;;;;;;;;;;5167288;27;19907;-70
2023/11/09 12:03:38;;;;;;;;;;;;;;;;;;5149425;27;20424;-70
2023/11/09 12:06:04;;;;;;;;;;;;;;;;;;5149051;27;19929;-71
2023/11/09 12:08:29;;;;;;;;;;;;;;;;;;5147923;27;19915;-71
2023/11/09 12:10:56;;;;;;;;;;;;;;;;;;5151433;27;20018;-70
2023/11/09 12:13:22;;;;;;;;;;;;;;;;;;5146091;27;19924;-71
2023/11/09 12:15:48;;;;;;;;;;;;;;;;;;5168696;27;19938;-72
2023/11/09 12:18:14;;;;;;;;;;;;;;;;;;5156700;27;19907;-72
2023/11/09 12:20:40;;;;;;;;;;;;;;;;;;5152319;27;19947;-71
2023/11/09 12:23:06;;;;;;;;;;;;;;;;;;5146336;27;19922;-72
2023/11/09 12:25:34;;;;;;;;;;;;;;;;;;5149350;27;19941;-70
2023/11/09 12:28:02;;;;;;;;;;;;;;;;;;5150595;27;19943;-70
2023/11/09 12:30:28;;;;;;;;;;;;;;;;;;5164263;27;20219;-72
2023/11/09 12:33:50;;;;;;;;;;;;;;;;;;5089528;27;19920;-70
2023/11/09 12:36:16;;;;;;;;;;;;;;;;;;5089723;28;19965;-70
2023/11/09 12:38:43;;;;;;;;;;;;;;;;;;5089752;28;20292;-69
2023/11/09 12:41:09;;;;;;;;;;;;;;;;;;5092501;28;20386;-71
2023/11/09 12:43:35;;;;;;;;;;;;;;;;;;5093667;28;19916;-70
2023/11/09 12:46:02;;;;;;;;;;;;;;;;;;5093950;28;19912;-71
2023/11/09 12:48:29;;;;;;;;;;;;;;;;;;5090396;28;19923;-70
2023/11/09 12:50:55;;;;;;;;;;;;;;;;;;5090156;28;19913;-70
2023/11/09 12:53:27;;;;;;;;;;;;;;;;;;5090464;28;19924;-71
2023/11/09 12:55:53;;;;;;;;;;;;;;;;;;5089155;28;20287;-69
2023/11/09 12:58:21;;;;;;;;;;;;;;;;;;5087465;28;19913;-69
2023/11/09 13:03:20;;;;;;;;;;;;;;;;;;5170823;27;20023;-68
2023/11/09 13:05:48;;;;;;;;;;;;;;;;;;5172545;27;19915;-68
2023/11/09 13:08:13;;;;;;;;;;;;;;;;;;5162817;27;19915;-69
2023/11/09 13:10:43;;;;;;;;;;;;;;;;;;5152552;27;20363;-69
2023/11/09 13:13:24;;;;;;;;;;;;;;;;;;5141523;27;19990;-68
2023/11/09 13:15:50;;;;;;;;;;;;;;;;;;5125303;27;19911;-69
2023/11/09 13:18:26;;;;;;;;;;;;;;;;;;5152500;27;19994;-67
2023/11/09 13:20:54;;;;;;;;;;;;;;;;;;5146451;27;19923;-69
2023/11/09 13:23:32;;;;;;;;;;;;;;;;;;5147296;27;19943;-67
2023/11/09 13:25:58;;;;;;;;;;;;;;;;;;5153100;27;19954;-67
2023/11/09 13:28:26;;;;;;;;;;;;;;;;;;5170201;27;19959;-68
2023/11/09 13:30:52;;;;;;;;;;;;;;;;;;5170110;27;19915;-70
2023/11/09 13:36:27;;;;;;;;;;;;;;;;;;5132254;27;19907;-69
2023/11/09 13:41:23;;;;;;;;;;;;;;;;;;5144006;27;19973;-70
2023/11/09 13:43:55;;;;;;;;;;;;;;;;;;5166227;27;19907;-69
2023/11/09 13:46:22;;;;;;;;;;;;;;;;;;5149495;27;20324;-70
2023/11/09 13:48:49;;;;;;;;;;;;;;;;;;5151693;27;20315;-70
2023/11/09 13:51:15;;;;;;;;;;;;;;;;;;5149581;27;19911;-70
2023/11/09 13:53:46;;;;;;;;;;;;;;;;;;5149200;27;19907;-70
2023/11/09 14:00:54;;;;;;;;;;;;;;;;;;5150491;27;19912;-71
2023/11/09 14:03:20;;;;;;;;;;;;;;;;;;5151081;27;20367;-70
2023/11/09 14:05:48;;;;;;;;;;;;;;;;;;5141686;27;19929;-69
2023/11/09 14:09:54;;;;;;;;;;;;;;;;;;5069207;28;19923;-73
2023/11/09 14:12:37;;;;;;;;;;;;;;;;;;5068041;28;19913;-73
2023/11/09 14:15:16;;;;;;;;;;;;;;;;;;5068845;28;20220;-74
2023/11/09 14:17:44;;;;;;;;;;;;;;;;;;5071220;28;20397;-73
2023/11/09 14:20:20;;;;;;;;;;;;;;;;;;5070983;28;19915;-73
2023/11/09 14:22:47;;;;;;;;;;;;;;;;;;5069945;28;20261;-73
2023/11/09 14:25:19;;;;;;;;;;;;;;;;;;5068780;28;19909;-73
2023/11/09 14:27:48;;;;;;;;;;;;;;;;;;5068712;28;19923;-73
2023/11/09 14:30:14;;;;;;;;;;;;;;;;;;5068530;28;20369;-73
2023/11/09 14:32:40;;;;;;;;;;;;;;;;;;5068665;28;19908;-73
2023/11/09 14:37:53;;;;;;;;;;;;;;;;;;5150518;27;20168;-72
2023/11/09 14:40:21;;;;;;;;;;;;;;;;;;5150706;27;19918;-72
2023/11/09 14:42:51;;;;;;;;;;;;;;;;;;5150432;27;20367;-72
2023/11/09 14:45:18;;;;;;;;;;;;;;;;;;5132736;27;19934;-72
2023/11/09 14:47:44;;;;;;;;;;;;;;;;;;5152097;27;19907;-72
2023/11/09 14:50:18;;;;;;;;;;;;;;;;;;5152315;27;19907;-72
2023/11/09 14:54:57;;;;;;;;;;;;;;;;;;5091670;28;20288;-72
2023/11/09 14:57:23;;;;;;;;;;;;;;;;;;5091141;28;20257;-72
2023/11/09 15:03:18;;;;;;;;;;;;;;;;;;5111485;27;19916;-72
2023/11/09 15:09:17;;;;;;;;;;;;;;;;;;5091906;27;19922;-72
2023/11/09 15:11:44;;;;;;;;;;;;;;;;;;5090931;28;20283;-71
2023/11/09 15:17:28;;;;;;;;;;;;;;;;;;5071323;28;19917;-71
2023/11/09 15:21:32;;;;;;;;;;;;;;;;;;5091857;27;19939;-71
2023/11/09 15:25:22;;;;;;;;;;;;;;;;;;5111524;27;19916;-72
2023/11/09 15:29:53;;;;;;;;;;;;;;;;;;5091236;27;19919;-71
2023/11/09 15:32:19;;;;;;;;;;;;;;;;;;5089654;28;19913;-72
2023/11/09 15:35:27;;;;;;;;;;;;;;;;;;5092090;27;19916;-74
2023/11/09 15:38:40;;;;;;;;;;;;;;;;;;5091516;27;20396;-72
2023/11/09 15:42:19;;;;;;;;;;;;;;;;;;5091697;27;20299;-72
2023/11/09 15:44:45;;;;;;;;;;;;;;;;;;5091478;28;19947;-71
2023/11/09 15:47:14;;;;;;;;;;;;;;;;;;5090919;28;19908;-72
2023/11/09 15:49:42;;;;;;;;;;;;;;;;;;5091104;28;19908;-71
2023/11/09 15:52:08;;;;;;;;;;;;;;;;;;5090965;28;19909;-71
2023/11/09 15:54:36;;;;;;;;;;;;;;;;;;5090594;28;19908;-71
2023/11/09 15:57:02;;;;;;;;;;;;;;;;;;5091055;28;20380;-72
2023/11/09 15:59:30;;;;;;;;;;;;;;;;;;5090508;28;19912;-72
2023/11/09 16:01:58;;;;;;;;;;;;;;;;;;5090834;28;19961;-72
2023/11/09 16:04:24;;;;;;;;;;;;;;;;;;5090918;28;19916;-71
2023/11/09 16:06:50;;;;;;;;;;;;;;;;;;5090692;28;19913;-72
2023/11/09 16:09:17;;;;;;;;;;;;;;;;;;5091354;28;19908;-73
2023/11/09 16:11:43;;;;;;;;;;;;;;;;;;5091418;28;19908;-72
2023/11/09 16:14:09;;;;;;;;;;;;;;;;;;5090178;28;19915;-73
2023/11/09 16:16:36;;;;;;;;;;;;;;;;;;5090833;28;19942;-73
2023/11/09 16:19:03;;;;;;;;;;;;;;;;;;5090587;28;20376;-73
2023/11/09 16:21:29;;;;;;;;;;;;;;;;;;5088916;28;19920;-72
2023/11/09 16:23:57;;;;;;;;;;;;;;;;;;5090675;28;19952;-72
2023/11/09 16:26:28;;;;;;;;;;;;;;;;;;5090709;28;19909;-73
2023/11/09 16:29:00;;;;;;;;;;;;;;;;;;5089986;28;19916;-73
2023/11/09 16:31:27;;;;;;;;;;;;;;;;;;5091143;28;20338;-73
2023/11/09 16:33:53;;;;;;;;;;;;;;;;;;5090646;28;20368;-73
2023/11/09 16:36:19;;;;;;;;;;;;;;;;;;5090282;28;19912;-73
2023/11/09 16:38:45;;;;;;;;;;;;;;;;;;5089051;28;19909;-74
2023/11/09 16:41:10;;;;;;;;;;;;;;;;;;5101283;28;19927;-73
2023/11/09 16:43:36;;;;;;;;;;;;;;;;;;5110165;28;19974;-74
2023/11/09 16:46:05;;;;;;;;;;;;;;;;;;5110804;28;19915;-73
2023/11/09 16:48:33;;;;;;;;;;;;;;;;;;5109954;28;20284;-73
2023/11/09 16:50:59;;;;;;;;;;;;;;;;;;5110386;28;19977;-73
2023/11/09 16:53:25;;;;;;;;;;;;;;;;;;5098203;28;19921;-73
2023/11/09 16:55:52;;;;;;;;;;;;;;;;;;5096428;28;20426;-74
2023/11/09 16:58:18;;;;;;;;;;;;;;;;;;5096720;28;19969;-73
2023/11/09 17:00:44;;;;;;;;;;;;;;;;;;5096684;28;20355;-73
2023/11/09 17:03:10;;;;;;;;;;;;;;;;;;5096296;28;19931;-73
2023/11/09 17:05:36;;;;;;;;;;;;;;;;;;5096679;28;20380;-73
2023/11/09 17:08:02;;;;;;;;;;;;;;;;;;5096562;28;19914;-73
2023/11/09 17:10:28;;;;;;;;;;;;;;;;;;5096190;28;19916;-73
2023/11/09 17:12:54;;;;;;;;;;;;;;;;;;5096642;28;19960;-73
2023/11/09 17:15:20;;;;;;;;;;;;;;;;;;5096414;28;19908;-73
2023/11/09 17:17:47;;;;;;;;;;;;;;;;;;5096095;28;19908;-73
2023/11/09 17:20:13;;;;;;;;;;;;;;;;;;5096283;28;19912;-74
2023/11/09 17:22:39;;;;;;;;;;;;;;;;;;5096472;28;19953;-72
2023/11/09 17:25:05;;;;;;;;;;;;;;;;;;5095710;28;19915;-72
2023/11/09 17:27:31;;;;;;;;;;;;;;;;;;5096011;28;19916;-72
2023/11/09 17:29:58;;;;;;;;;;;;;;;;;;5096112;28;19908;-72
2023/11/09 17:32:24;;;;;;;;;;;;;;;;;;5095672;28;19908;-71
2023/11/09 17:34:50;;;;;;;;;;;;;;;;;;5095993;28;19908;-72
2023/11/09 17:37:16;;;;;;;;;;;;;;;;;;5095974;28;19916;-73
2023/11/09 17:39:42;;;;;;;;;;;;;;;;;;5095507;28;19931;-72
2023/11/09 17:42:08;;;;;;;;;;;;;;;;;;5077467;28;20330;-72
2023/11/09 17:44:34;;;;;;;;;;;;;;;;;;5095810;28;20436;-73
2023/11/09 17:47:01;;;;;;;;;;;;;;;;;;5077286;28;19912;-73
2023/11/09 17:49:27;;;;;;;;;;;;;;;;;;5095752;28;20028;-72
2023/11/09 17:51:53;;;;;;;;;;;;;;;;;;5095434;28;20441;-73
2023/11/09 17:54:19;;;;;;;;;;;;;;;;;;5096241;28;20367;-73
2023/11/09 17:56:44;;;;;;;;;;;;;;;;;;5095532;28;19908;-73
2023/11/09 17:59:10;;;;;;;;;;;;;;;;;;5095218;28;20306;-73
2023/11/09 18:01:37;;;;;;;;;;;;;;;;;;5076918;28;20368;-71
2023/11/09 18:04:04;;;;;;;;;;;;;;;;;;5076307;28;19908;-72
2023/11/09 18:06:32;;;;;;;;;;;;;;;;;;5095016;28;19951;-72